Time;durP1;ratioP1;P1;durP2;ratioP2;P2;SDS_P1;SDS_P2;PMS_P1;PMS_P2;Temp;Humidity;BMP_temperature;BMP_pressure;BME280_temperature;BME280_humidity;BME280_pressure;Samples;Min_cycle;Max_cycle;Signal;HPM_P1;HPM_P2
2021/05/04 00:00:25;;;;;;;15.10;2.78;;;;;;;24.20;37.37;100715.56;5112032;28;20495;-64
2021/05/04 00:02:52;;;;;;;18.17;3.17;;;;;;;24.12;37.50;100706.84;5112153;27;20113;-64
2021/05/04 00:05:20;;;;;;;14.15;2.42;;;;;;;23.76;38.28;100709.19;5112140;28;20067;-64
2021/05/04 00:07:47;;;;;;;12.48;2.70;;;;;;;23.78;38.36;100703.75;5113683;27;20430;-65
2021/05/04 00:10:16;;;;;;;18.02;3.17;;;;;;;23.74;38.19;100700.31;5131369;27;20114;-64
2021/05/04 00:12:43;;;;;;;20.83;3.10;;;;;;;23.69;38.34;100696.94;5119810;27;20399;-64
2021/05/04 00:15:11;;;;;;;17.27;2.85;;;;;;;23.78;38.01;100701.06;5127415;27;20051;-64
2021/05/04 00:17:38;;;;;;;14.50;3.10;;;;;;;23.76;37.84;100700.25;5128067;27;20046;-64
2021/05/04 00:20:07;;;;;;;16.02;2.33;;;;;;;23.55;37.95;100704.66;5111643;28;20050;-64
2021/05/04 00:22:34;;;;;;;16.95;3.15;;;;;;;23.34;38.20;100710.84;5112943;27;20588;-63
2021/05/04 00:25:01;;;;;;;15.07;3.53;;;;;;;23.19;38.00;100701.50;5111652;28;20123;-63
2021/05/04 00:27:29;;;;;;;14.35;2.67;;;;;;;23.20;37.79;100705.09;5111703;28;20514;-64
2021/05/04 00:29:56;;;;;;;21.42;3.22;;;;;;;23.20;37.51;100702.41;5130858;27;20603;-64
2021/05/04 00:32:24;;;;;;;15.68;2.50;;;;;;;23.21;37.56;100705.03;5131903;27;20092;-64
2021/05/04 00:34:52;;;;;;;15.48;3.00;;;;;;;23.27;37.42;100707.50;5131956;27;20047;-63
2021/05/04 00:37:19;;;;;;;14.73;2.78;;;;;;;23.30;37.66;100710.06;5120812;27;20680;-63
2021/05/04 00:39:47;;;;;;;18.00;2.67;;;;;;;23.09;38.08;100708.19;5110762;27;20466;-64
2021/05/04 00:42:14;;;;;;;17.20;3.30;;;;;;;22.74;39.31;100712.16;5110923;28;20092;-64
2021/05/04 00:44:42;;;;;;;17.30;3.28;;;;;;;22.80;39.39;100721.81;5111067;28;20120;-63
2021/05/04 00:47:09;;;;;;;12.27;2.10;;;;;;;22.90;39.22;100710.69;5111358;28;20039;-64
2021/05/04 00:49:36;;;;;;;16.20;3.03;;;;;;;22.98;39.26;100716.63;5111764;28;20455;-64
2021/05/04 00:52:03;;;;;;;20.48;3.40;;;;;;;22.99;39.11;100721.09;5111121;28;20101;-64
2021/05/04 00:54:31;;;;;;;11.13;3.25;;;;;;;23.02;39.21;100721.00;5111637;28;20480;-64
2021/05/04 00:56:58;;;;;;;16.67;3.60;;;;;;;23.11;39.07;100716.19;5110203;28;20510;-64
2021/05/04 00:59:26;;;;;;;20.50;3.33;;;;;;;23.22;38.64;100705.91;5109836;28;20122;-65
2021/05/04 01:01:55;;;;;;;12.30;3.05;;;;;;;23.26;38.27;100707.53;5111284;28;20073;-64
2021/05/04 01:04:24;;;;;;;11.55;2.95;;;;;;;23.17;38.74;100695.28;5111784;28;20126;-64
2021/05/04 01:06:51;;;;;;;17.05;3.42;;;;;;;23.09;39.05;100707.31;5110343;28;20056;-64
2021/05/04 01:09:19;;;;;;;14.80;3.35;;;;;;;23.05;39.25;100698.44;5111755;28;20051;-63
2021/05/04 01:11:47;;;;;;;15.70;2.65;;;;;;;22.98;39.65;100697.78;5110892;28;20126;-64
2021/05/04 01:14:15;;;;;;;17.73;3.67;;;;;;;22.83;40.17;100700.19;5110988;28;20138;-64
2021/05/04 01:16:43;;;;;;;14.60;2.63;;;;;;;22.70;40.22;100697.00;5110519;28;20517;-63
2021/05/04 01:19:11;;;;;;;15.05;3.65;;;;;;;22.52;40.93;100695.81;5111213;28;20039;-64
2021/05/04 01:21:39;;;;;;;14.57;3.40;;;;;;;22.48;40.79;100696.00;5092638;28;20495;-64
2021/05/04 01:24:08;;;;;;;10.98;3.00;;;;;;;22.46;40.65;100693.34;5111435;28;20130;-64
2021/05/04 01:26:35;;;;;;;16.17;2.47;;;;;;;22.46;40.66;100692.47;5109974;28;20118;-64
2021/05/04 01:29:02;;;;;;;17.05;3.78;;;;;;;22.58;40.42;100698.28;5111521;28;20131;-64
2021/05/04 01:31:30;;;;;;;10.32;2.50;;;;;;;22.43;40.57;100701.53;5110856;28;20479;-63
2021/05/04 01:33:57;;;;;;;11.60;2.60;;;;;;;22.12;41.04;100706.19;5110475;28;20040;-63
2021/05/04 01:36:24;;;;;;;12.23;2.40;;;;;;;22.05;41.50;100716.25;5110646;28;20044;-63
2021/05/04 01:38:52;;;;;;;15.18;3.05;;;;;;;22.08;41.19;100742.16;5111459;28;20458;-64
2021/05/04 01:41:20;;;;;;;15.00;3.28;;;;;;;22.12;40.72;100758.13;5110794;28;20070;-64
2021/05/04 01:43:47;;;;;;;17.63;2.97;;;;;;;22.18;40.21;100759.78;5110445;28;20078;-64
2021/05/04 01:46:15;;;;;;;12.88;3.13;;;;;;;22.25;40.06;100748.75;5110542;28;20039;-64
2021/05/04 01:48:41;;;;;;;15.20;3.17;;;;;;;22.15;40.41;100767.94;5110774;28;20596;-63
2021/05/04 01:51:08;;;;;;;15.57;2.97;;;;;;;22.12;40.99;100774.28;5110691;28;20059;-63
2021/05/04 01:53:36;;;;;;;16.00;3.55;;;;;;;22.11;40.84;100777.03;5110325;28;20039;-64
2021/05/04 01:56:05;;;;;;;15.25;2.63;;;;;;;22.16;41.31;100785.81;5110051;28;20578;-64
2021/05/04 01:58:32;;;;;;;11.25;3.22;;;;;;;22.18;41.63;100779.47;5110609;28;20035;-64
2021/05/04 02:00:59;;;;;;;18.55;3.38;;;;;;;22.23;42.28;100772.13;5110605;28;20089;-63
2021/05/04 02:03:26;;;;;;;19.23;3.55;;;;;;;22.24;42.65;100778.41;5110269;28;20127;-64
2021/05/04 02:05:53;;;;;;;14.32;3.05;;;;;;;22.28;42.99;100780.03;5109410;28;20064;-64
2021/05/04 02:08:20;;;;;;;16.73;2.90;;;;;;;22.29;44.04;100762.09;5110653;28;20113;-63
2021/05/04 02:10:48;;;;;;;12.48;2.55;;;;;;;22.28;45.20;100758.53;5112787;28;20040;-64
2021/05/04 02:13:16;;;;;;;18.88;3.10;;;;;;;22.32;45.46;100756.63;5115009;28;20108;-64
2021/05/04 02:15:43;;;;;;;16.75;3.78;;;;;;;22.35;45.83;100757.41;5113551;28;20039;-64
2021/05/04 02:18:10;;;;;;;14.18;3.28;;;;;;;22.27;46.05;100763.03;5114354;28;20043;-63
2021/05/04 02:20:37;;;;;;;19.45;3.17;;;;;;;22.09;46.86;100752.88;5113732;28;20059;-64
2021/05/04 02:23:05;;;;;;;25.55;3.92;;;;;;;22.09;47.15;100747.50;5112583;28;20085;-64
2021/05/04 02:25:32;;;;;;;12.35;2.75;;;;;;;22.05;46.63;100745.84;5113819;28;20161;-64
2021/05/04 02:27:59;;;;;;;19.13;4.03;;;;;;;22.04;46.63;100743.19;5114547;28;20036;-63
2021/05/04 02:30:27;;;;;;;11.45;3.05;;;;;;;22.00;46.47;100734.31;5096014;28;20067;-64
2021/05/04 02:32:55;;;;;;;12.20;3.30;;;;;;;21.90;46.35;100721.22;5114515;28;20105;-64
2021/05/04 02:35:22;;;;;;;17.73;4.10;;;;;;;21.94;46.63;100718.34;5114479;28;20044;-64
2021/05/04 02:37:49;;;;;;;14.60;3.05;;;;;;;21.90;46.72;100721.22;5113659;28;20078;-64
2021/05/04 02:40:16;;;;;;;13.73;3.40;;;;;;;21.78;47.31;100714.41;5114101;28;20063;-64
2021/05/04 02:42:44;;;;;;;14.70;3.30;;;;;;;21.69;48.25;100709.31;5096719;28;20036;-64
2021/05/04 02:45:12;;;;;;;13.07;2.78;;;;;;;21.69;48.45;100704.81;5093085;28;20039;-64
2021/05/04 02:47:40;;;;;;;14.88;3.10;;;;;;;21.79;48.27;100703.59;5093090;28;20044;-64
2021/05/04 02:50:08;;;;;;;15.48;3.78;;;;;;;21.88;48.11;100706.00;5092321;28;20044;-64
2021/05/04 02:52:35;;;;;;;17.08;3.55;;;;;;;21.98;48.38;100703.94;5093439;28;20547;-64
2021/05/04 02:55:03;;;;;;;15.90;3.38;;;;;;;21.96;49.07;100711.16;5092515;28;20071;-64
2021/05/04 02:57:30;;;;;;;16.40;3.92;;;;;;;21.90;49.36;100708.66;5092775;28;20127;-63
2021/05/04 02:59:57;;;;;;;18.40;4.15;;;;;;;21.81;49.90;100725.06;5093394;28;20059;-65
2021/05/04 03:02:24;;;;;;;17.70;3.67;;;;;;;21.77;50.19;100734.16;5093610;28;20044;-64
2021/05/04 03:04:53;;;;;;;22.63;4.00;;;;;;;21.67;50.20;100740.72;5092706;28;20067;-64
2021/05/04 03:07:20;;;;;;;18.55;3.53;;;;;;;21.64;50.50;100740.81;5093702;28;20052;-63
2021/05/04 03:09:47;;;;;;;21.20;4.32;;;;;;;21.67;50.34;100748.78;5093475;28;20369;-64
2021/05/04 03:12:14;;;;;;;19.48;3.70;;;;;;;21.77;50.29;100750.28;5093487;28;20052;-63
2021/05/04 03:14:41;;;;;;;15.52;3.00;;;;;;;21.80;50.12;100745.66;5092583;28;20056;-64
2021/05/04 03:17:08;;;;;;;20.13;4.35;;;;;;;21.79;49.75;100754.66;5093056;28;20075;-64
2021/05/04 03:19:36;;;;;;;16.98;4.55;;;;;;;21.81;49.76;100752.81;5092051;28;20490;-64
2021/05/04 03:22:04;;;;;;;17.35;3.70;;;;;;;21.91;49.06;100761.50;5092180;28;20427;-63
2021/05/04 03:24:31;;;;;;;12.10;3.65;;;;;;;21.96;48.63;100767.63;5092315;28;20504;-64
2021/05/04 03:26:58;;;;;;;18.70;3.45;;;;;;;21.90;48.94;100774.97;5092685;28;20055;-64
2021/05/04 03:29:26;;;;;;;15.23;3.78;;;;;;;21.83;49.45;100771.59;5092851;28;20038;-63
2021/05/04 03:31:53;;;;;;;18.08;4.13;;;;;;;21.73;49.78;100770.97;5093055;28;20046;-63
2021/05/04 03:34:21;;;;;;;13.15;3.33;;;;;;;21.76;49.75;100773.59;5092220;28;20082;-64
2021/05/04 03:36:48;;;;;;;16.05;4.30;;;;;;;21.80;50.17;100768.97;5092295;28;20484;-63
2021/05/04 03:39:17;;;;;;;15.90;3.70;;;;;;;21.84;50.44;100770.66;5091732;28;20083;-64
2021/05/04 03:41:44;;;;;;;15.52;3.53;;;;;;;21.79;50.86;100749.28;5100033;28;20039;-64
2021/05/04 03:44:11;;;;;;;20.40;3.97;;;;;;;21.77;50.98;100751.16;5112612;28;20063;-64
2021/05/04 03:46:38;;;;;;;17.75;3.08;;;;;;;21.84;50.89;100744.66;5112455;28;20122;-63
2021/05/04 03:49:05;;;;;;;14.63;3.75;;;;;;;21.98;50.58;100744.28;5112214;28;20044;-64
2021/05/04 03:51:32;;;;;;;18.50;4.03;;;;;;;22.05;50.62;100750.34;5112751;28;20063;-64
2021/05/04 03:54:01;;;;;;;16.00;3.63;;;;;;;22.01;50.37;100764.78;5111450;28;20108;-64
2021/05/04 03:56:29;;;;;;;19.38;4.07;;;;;;;21.90;50.26;100756.16;5112121;28;20051;-64
2021/05/04 03:58:57;;;;;;;12.75;3.58;;;;;;;21.96;50.57;100750.63;5113148;28;20064;-65
2021/05/04 04:01:24;;;;;;;19.92;3.47;;;;;;;22.03;50.36;100747.69;5111722;28;20044;-63
2021/05/04 04:03:51;;;;;;;12.88;3.60;;;;;;;22.02;50.48;100750.41;5112764;28;20466;-65
2021/05/04 04:06:19;;;;;;;18.08;4.18;;;;;;;22.03;50.23;100734.25;5112018;28;20487;-64
2021/05/04 04:08:46;;;;;;;20.13;3.63;;;;;;;22.13;49.81;100714.19;5111954;28;20111;-63
2021/05/04 04:11:14;;;;;;;15.52;3.45;;;;;;;22.24;49.62;100725.50;5112272;28;20036;-64
2021/05/04 04:13:42;;;;;;;18.52;3.50;;;;;;;22.31;49.65;100731.53;5112347;28;20077;-64
2021/05/04 04:16:09;;;;;;;18.55;3.72;;;;;;;22.24;49.89;100722.81;5111370;28;20503;-63
2021/05/04 04:18:36;;;;;;;16.90;3.58;;;;;;;22.32;49.67;100716.28;5112292;28;20512;-63
2021/05/04 04:21:04;;;;;;;19.27;3.80;;;;;;;22.43;49.44;100728.44;5093796;28;20056;-64
2021/05/04 04:23:31;;;;;;;15.43;3.85;;;;;;;22.55;49.10;100732.53;5111388;28;20122;-63
2021/05/04 04:25:58;;;;;;;11.82;3.28;;;;;;;22.59;49.15;100729.66;5111892;28;20075;-63
2021/05/04 04:28:25;;;;;;;13.73;3.45;;;;;;;22.57;49.22;100722.59;5111835;28;20443;-64
2021/05/04 04:30:54;;;;;;;15.05;3.33;;;;;;;22.65;49.20;100707.91;5110691;28;20051;-64
2021/05/04 04:33:25;;;;;;;17.00;3.38;;;;;;;22.80;48.46;100701.16;5111338;28;20047;-63
2021/05/04 04:35:52;;;;;;;16.55;3.38;;;;;;;22.87;47.54;100705.38;5111694;28;20118;-64
2021/05/04 04:38:20;;;;;;;19.65;5.60;;;;;;;22.95;47.53;100718.59;5112141;28;20483;-64
2021/05/04 04:40:47;;;;;;;22.27;4.80;;;;;;;22.83;47.65;100705.56;5110606;28;20050;-64
2021/05/04 04:43:15;;;;;;;16.85;3.33;;;;;;;23.03;47.01;100695.84;5110681;28;20122;-64
2021/05/04 04:45:42;;;;;;;12.20;3.42;;;;;;;23.28;46.83;100701.19;5111970;28;20042;-64
2021/05/04 04:48:10;;;;;;;13.98;3.75;;;;;;;23.45;46.39;100692.44;5111694;28;20036;-64
2021/05/04 04:50:37;;;;;;;21.58;3.42;;;;;;;23.56;46.23;100684.00;5110555;28;20035;-64
2021/05/04 04:53:06;;;;;;;11.32;3.17;;;;;;;23.86;45.24;100681.88;5111267;28;20554;-64
2021/05/04 04:55:33;;;;;;;18.50;3.92;;;;;;;24.18;45.00;100685.00;5110703;28;20114;-65
2021/05/04 04:58:00;;;;;;;16.25;3.72;;;;;;;24.45;44.45;100688.41;5110194;28;20040;-64
2021/05/04 05:00:27;;;;;;;16.98;3.67;;;;;;;24.55;43.94;100689.75;5110706;28;20050;-64
2021/05/04 05:02:54;;;;;;;20.35;4.05;;;;;;;24.60;43.61;100682.34;5110769;28;20138;-64
2021/05/04 05:05:23;;;;;;;13.57;3.03;;;;;;;24.83;43.35;100686.72;5110134;28;20547;-63
2021/05/04 05:07:51;;;;;;;23.02;3.40;;;;;;;25.04;43.11;100682.22;5091102;28;20449;-64
2021/05/04 05:10:18;;;;;;;17.17;3.75;;;;;;;25.21;42.79;100698.53;5112578;28;20043;-63
2021/05/04 05:12:45;;;;;;;23.52;3.92;;;;;;;25.38;42.58;100700.47;5110952;28;20047;-63
2021/05/04 05:15:13;;;;;;;20.17;3.53;;;;;;;25.54;42.73;100708.72;5117091;28;20051;-63
2021/05/04 05:17:41;;;;;;;14.93;3.25;;;;;;;25.72;42.36;100707.91;5110052;28;20093;-64
2021/05/04 05:20:09;;;;;;;23.48;3.33;;;;;;;25.86;42.02;100710.84;5110538;28;20043;-64
2021/05/04 05:22:37;;;;;;;17.85;3.97;;;;;;;26.00;41.73;100713.72;5105719;28;20039;-64
2021/05/04 05:25:05;;;;;;;17.70;3.17;;;;;;;26.11;41.04;100716.81;5110095;28;20039;-64
2021/05/04 05:27:33;;;;;;;20.50;3.45;;;;;;;26.26;41.00;100725.13;5110830;28;20038;-64
2021/05/04 05:30:00;;;;;;;14.43;3.45;;;;;;;26.26;40.76;100727.81;5109840;28;20089;-64
2021/05/04 05:32:27;;;;;;;17.92;3.53;;;;;;;26.41;40.91;100725.25;5110544;28;20126;-67
2021/05/04 05:34:54;;;;;;;14.23;2.85;;;;;;;26.57;40.62;100723.53;5111301;28;20099;-64
2021/05/04 05:37:22;;;;;;;15.75;3.45;;;;;;;26.79;40.50;100720.56;5110199;28;20111;-64
2021/05/04 05:39:50;;;;;;;16.30;3.90;;;;;;;26.98;40.62;100719.66;5110146;28;20502;-64
2021/05/04 05:42:18;;;;;;;19.23;3.65;;;;;;;27.06;40.49;100725.50;5109817;28;20173;-63
2021/05/04 05:44:45;;;;;;;16.98;3.83;;;;;;;27.05;40.71;100727.34;5110427;28;20052;-64
2021/05/04 05:47:12;;;;;;;23.17;3.50;;;;;;;27.14;41.11;100731.41;5114417;28;20499;-64
2021/05/04 05:49:41;;;;;;;18.65;3.53;;;;;;;27.25;41.02;100724.44;5114384;28;20024;-64
2021/05/04 05:52:09;;;;;;;17.92;3.53;;;;;;;27.33;41.29;100732.16;5114208;28;20036;-64
2021/05/04 05:54:37;;;;;;;16.08;3.22;;;;;;;27.38;40.46;100730.06;5114054;28;20084;-64
2021/05/04 05:57:06;;;;;;;14.18;3.00;;;;;;;27.54;39.53;100716.59;5114126;28;20043;-64
2021/05/04 05:59:33;;;;;;;14.02;4.05;;;;;;;27.77;38.96;100706.19;5113753;28;20123;-64
2021/05/04 06:02:00;;;;;;;15.88;3.28;;;;;;;28.01;38.26;100697.63;5115122;28;20047;-64
2021/05/04 06:04:27;;;;;;;14.25;3.05;;;;;;;28.12;37.25;100690.63;5113748;28;20388;-64
2021/05/04 06:06:54;;;;;;;12.90;3.45;;;;;;;28.29;36.26;100697.78;5112986;28;20085;-64
2021/05/04 06:09:21;;;;;;;16.90;3.53;;;;;;;28.66;35.82;100682.03;5114015;28;20048;-64
2021/05/04 06:11:49;;;;;;;18.35;3.38;;;;;;;29.00;35.06;100686.31;5114518;28;20046;-64
2021/05/04 06:14:18;;;;;;;16.25;3.22;;;;;;;29.27;34.28;100700.91;5114071;28;20059;-64
2021/05/04 06:16:47;;;;;;;14.07;3.35;;;;;;;29.36;34.96;100713.06;5114227;28;20485;-64
2021/05/04 06:19:14;;;;;;;16.88;3.72;;;;;;;29.39;35.84;100707.44;5110948;28;20088;-64
2021/05/04 06:21:42;;;;;;;15.02;3.22;;;;;;;29.44;35.76;100708.03;5113358;28;20119;-64
2021/05/04 06:24:09;;;;;;;17.05;3.85;;;;;;;29.51;35.39;100707.53;5112912;28;20039;-64
2021/05/04 06:26:37;;;;;;;19.40;3.95;;;;;;;29.68;34.46;100711.88;5113208;28;20062;-64
2021/05/04 06:29:05;;;;;;;20.27;3.53;;;;;;;29.80;34.10;100719.25;5111712;28;20063;-65
2021/05/04 06:31:34;;;;;;;16.23;3.60;;;;;;;29.91;33.94;100714.00;5111609;28;20078;-64
2021/05/04 06:34:02;;;;;;;20.95;4.25;;;;;;;29.97;32.97;100700.00;5108619;28;20122;-64
2021/05/04 06:36:30;;;;;;;18.27;3.60;;;;;;;30.03;32.39;100705.06;5124745;27;20063;-65
2021/05/04 06:38:57;;;;;;;15.70;2.85;;;;;;;30.10;32.41;100710.97;5120493;27;20070;-64
2021/05/04 06:41:24;;;;;;;18.60;4.00;;;;;;;30.18;31.55;100713.19;5112185;27;20075;-64
2021/05/04 06:43:51;;;;;;;23.23;3.75;;;;;;;30.25;30.98;100729.03;5092027;28;20557;-64
2021/05/04 06:46:19;;;;;;;22.67;4.70;;;;;;;30.36;30.66;100731.03;5091987;28;20055;-64
2021/05/04 06:48:47;;;;;;;17.90;3.25;;;;;;;30.59;30.85;100721.34;5091028;28;20493;-64
2021/05/04 06:51:14;;;;;;;24.10;3.25;;;;;;;30.84;30.72;100735.91;5093255;28;20071;-64
2021/05/04 06:53:41;;;;;;;15.23;3.10;;;;;;;30.89;30.67;100732.84;5091379;28;20063;-64
2021/05/04 06:56:08;;;;;;;15.00;3.13;;;;;;;31.09;30.42;100735.09;5090144;28;20510;-65
2021/05/04 06:58:36;;;;;;;17.55;3.10;;;;;;;31.36;29.85;100740.44;5092449;28;20060;-64
2021/05/04 07:01:03;;;;;;;15.82;3.40;;;;;;;31.47;29.50;100743.28;5087733;28;20060;-65
2021/05/04 07:03:30;;;;;;;18.70;3.72;;;;;;;31.52;27.75;100752.00;5093721;28;20040;-65
2021/05/04 07:05:59;;;;;;;17.17;3.38;;;;;;;31.89;26.43;100780.31;5093320;28;20064;-64
2021/05/04 07:08:26;;;;;;;16.92;2.90;;;;;;;32.25;25.38;100776.72;5092558;28;20076;-64
2021/05/04 07:10:53;;;;;;;19.15;4.30;;;;;;;32.46;24.78;100779.72;5091675;28;20106;-65
2021/05/04 07:13:20;;;;;;;14.10;3.05;;;;;;;32.48;25.36;100783.22;5092346;28;20063;-65
2021/05/04 07:15:47;;;;;;;15.98;3.33;;;;;;;32.29;26.61;100781.00;5089376;28;20402;-65
2021/05/04 07:18:16;;;;;;;21.88;5.10;;;;;;;32.04;28.39;100783.75;5097134;28;20071;-64
2021/05/04 07:20:43;;;;;;;19.95;4.50;;;;;;;31.75;30.74;100782.28;5091261;28;20401;-64
2021/05/04 07:23:13;;;;;;;22.73;3.42;;;;;;;31.37;32.17;100799.50;5092465;28;20043;-64
2021/05/04 07:25:41;;;;;;;21.88;4.10;;;;;;;31.17;33.21;100795.44;5091960;28;20032;-64
2021/05/04 07:28:08;;;;;;;19.17;3.80;;;;;;;31.12;33.71;100799.44;5095512;28;20126;-65
2021/05/04 07:30:39;;;;;;;16.77;3.85;;;;;;;31.00;34.40;100803.00;5091627;28;20116;-65
2021/05/04 07:33:07;;;;;;;21.67;3.47;;;;;;;30.88;34.23;100796.53;5092283;28;20549;-65
2021/05/04 07:35:34;;;;;;;19.35;3.78;;;;;;;30.90;33.37;100778.22;5091432;28;20036;-64
2021/05/04 07:38:01;;;;;;;13.52;3.50;;;;;;;31.06;32.54;100767.16;5092148;28;20048;-64
2021/05/04 07:40:31;;;;;;;16.48;4.80;;;;;;;31.55;31.75;100750.91;5091657;28;20111;-65
2021/05/04 07:42:58;;;;;;;13.90;2.95;;;;;;;31.87;31.11;100748.63;5110649;28;20080;-64
2021/05/04 07:45:25;;;;;;;19.35;3.47;;;;;;;32.30;30.87;100752.66;5111103;28;20049;-65
2021/05/04 07:47:55;;;;;;;16.80;3.85;;;;;;;32.33;30.11;100754.28;5112443;28;20059;-64
2021/05/04 07:50:23;;;;;;;20.38;3.33;;;;;;;32.37;29.65;100769.47;5111751;28;20047;-64
2021/05/04 07:52:51;;;;;;;17.20;3.50;;;;;;;32.63;29.17;100781.16;5111614;28;20039;-64
2021/05/04 07:55:19;;;;;;;19.65;4.43;;;;;;;32.32;29.81;100793.53;5110788;28;20503;-64
2021/05/04 07:57:48;;;;;;;16.88;3.42;;;;;;;31.90;29.64;100789.38;5111799;28;20044;-64
2021/05/04 08:00:17;;;;;;;16.63;3.97;;;;;;;31.23;30.19;100811.41;5109649;28;20462;-65
2021/05/04 08:02:44;;;;;;;16.42;3.58;;;;;;;30.79;30.05;100819.84;5111640;28;20051;-64
2021/05/04 08:05:12;;;;;;;17.73;4.35;;;;;;;30.89;29.15;100817.38;5110880;28;20059;-65
2021/05/04 08:07:39;;;;;;;12.23;2.97;;;;;;;31.41;27.35;100824.72;5110453;28;20044;-65
2021/05/04 08:10:08;;;;;;;18.13;3.30;;;;;;;31.88;26.03;100824.09;5107970;28;20028;-65
2021/05/04 08:12:36;;;;;;;13.98;3.30;;;;;;;32.18;25.48;100827.38;5112296;28;20483;-65
2021/05/04 08:15:06;;;;;;;15.18;4.13;;;;;;;32.08;25.68;100866.38;5111435;28;20167;-65
2021/05/04 08:17:36;;;;;;;17.95;2.95;;;;;;;31.53;25.95;100881.19;5111932;28;20035;-65
2021/05/04 08:20:04;;;;;;;16.83;3.10;;;;;;;31.37;26.60;100894.16;5111270;28;20097;-66
2021/05/04 08:22:31;;;;;;;14.10;3.63;;;;;;;31.22;26.80;100902.41;5111775;28;20034;-65
2021/05/04 08:25:00;;;;;;;19.40;2.92;;;;;;;31.49;26.70;100901.50;5111627;28;20107;-65
2021/05/04 08:27:27;;;;;;;19.33;3.60;;;;;;;31.49;27.26;100899.66;5109710;28;20559;-65
2021/05/04 08:29:54;;;;;;;17.67;3.20;;;;;;;31.78;27.62;100904.94;5111001;28;20070;-65
2021/05/04 08:32:22;;;;;;;19.83;3.35;;;;;;;31.73;27.68;100910.72;5111596;28;20127;-65
2021/05/04 08:34:50;;;;;;;16.98;3.92;;;;;;;31.74;27.72;100912.47;5109029;28;20108;-65
2021/05/04 08:37:17;;;;;;;15.43;4.22;;;;;;;31.86;28.10;100910.75;5110803;28;20752;-65
2021/05/04 08:39:44;;;;;;;15.00;3.17;;;;;;;32.11;28.44;100907.13;5111149;28;20032;-64
2021/05/04 08:42:11;;;;;;;17.23;3.97;;;;;;;31.96;28.66;100911.84;5099823;27;20124;-64
2021/05/04 08:44:39;;;;;;;17.58;3.78;;;;;;;31.94;29.04;100908.34;5097332;28;20035;-64
2021/05/04 08:47:08;;;;;;;15.82;4.07;;;;;;;31.88;29.20;100906.06;5111980;27;20528;-64
2021/05/04 08:49:39;;;;;;;19.38;3.97;;;;;;;31.96;29.93;100920.03;5122173;27;20145;-65
2021/05/04 08:52:06;;;;;;;17.02;3.55;;;;;;;32.16;30.29;100929.59;5110145;28;20433;-65
2021/05/04 08:54:33;;;;;;;13.77;3.55;;;;;;;32.43;30.45;100939.38;5110115;28;20071;-64
2021/05/04 08:57:01;;;;;;;17.38;2.80;;;;;;;32.53;30.57;100949.66;5110219;28;20047;-65
2021/05/04 08:59:28;;;;;;;19.08;3.67;;;;;;;32.51;31.28;100948.88;5111286;28;20361;-65
2021/05/04 09:01:55;;;;;;;18.02;3.25;;;;;;;32.70;31.48;100950.19;5107541;28;20085;-65
2021/05/04 09:04:27;;;;;;;17.65;3.30;;;;;;;32.90;31.98;100954.19;5108083;28;20541;-65
2021/05/04 09:07:02;;;;;;;20.45;3.95;;;;;;;33.09;31.73;100961.88;5109104;28;20047;-65
2021/05/04 09:09:33;;;;;;;16.27;3.65;;;;;;;33.18;31.50;100969.41;5109643;28;20042;-66
2021/05/04 09:12:07;;;;;;;14.38;3.85;;;;;;;33.20;31.33;100964.75;5117704;27;20040;-65
2021/05/04 09:14:46;;;;;;;13.10;3.40;;;;;;;33.17;31.75;100962.19;5111062;28;20051;-65
2021/05/04 09:17:18;;;;;;;14.35;3.10;;;;;;;32.93;31.56;100956.72;5109699;28;20036;-65
2021/05/04 09:20:03;;;;;;;16.08;3.45;;;;;;;32.94;31.66;100952.09;5109412;28;20043;-65
2021/05/04 09:22:35;;;;;;;17.95;3.80;;;;;;;32.60;31.90;100950.97;5109449;28;20067;-66
2021/05/04 09:25:04;;;;;;;18.00;3.65;;;;;;;32.64;32.26;100947.00;5110841;28;20106;-66
2021/05/04 09:27:31;;;;;;;16.48;3.38;;;;;;;32.44;32.05;100953.91;5110481;28;20527;-65
2021/05/04 09:29:59;;;;;;;21.67;4.30;;;;;;;32.02;32.22;100960.59;5113642;28;20101;-65
2021/05/04 09:32:28;;;;;;;16.40;3.88;;;;;;;31.59;32.84;100958.09;5108812;28;20040;-65
2021/05/04 09:34:57;;;;;;;20.38;3.95;;;;;;;31.26;32.98;100946.72;5110575;28;20048;-64
2021/05/04 09:37:43;;;;;;;14.40;3.40;;;;;;;31.33;33.58;100936.28;5109303;28;21739;-64
2021/05/04 09:40:26;;;;;;;15.85;3.13;;;;;;;31.74;32.65;100945.25;5091028;28;20112;-64
2021/05/04 09:43:19;;;;;;;19.50;3.83;;;;;;;32.18;31.89;100938.53;5092431;28;20115;-64
2021/05/04 09:45:53;;;;;;;15.55;3.28;;;;;;;32.64;31.33;100938.78;5074405;28;20380;-64
2021/05/04 09:48:23;;;;;;;16.90;3.28;;;;;;;32.90;31.23;100931.41;5089980;28;20484;-65
2021/05/04 09:51:00;;;;;;;14.93;3.13;;;;;;;33.16;30.49;100928.47;5090223;28;20576;-65
2021/05/04 09:56:14;;;;;;;19.33;3.38;;;;;;;33.44;29.70;100920.91;5085683;28;20044;-65
2021/05/04 09:58:42;;;;;;;15.68;3.33;;;;;;;33.40;29.36;100920.28;5088884;28;20040;-65
2021/05/04 10:01:11;;;;;;;18.33;3.17;;;;;;;33.22;30.01;100917.06;5088686;28;20503;-65
2021/05/04 10:03:41;;;;;;;15.50;3.17;;;;;;;33.24;30.00;100900.53;5086435;28;20055;-64
2021/05/04 10:06:10;;;;;;;17.17;3.20;;;;;;;33.14;29.88;100900.38;5090108;28;20538;-65
2021/05/04 10:08:43;;;;;;;16.80;4.60;;;;;;;33.05;29.80;100898.31;5089041;28;20044;-64
2021/05/04 10:11:18;;;;;;;14.52;3.17;;;;;;;33.19;29.11;100897.28;5089925;28;20515;-64
2021/05/04 10:13:51;;;;;;;11.65;3.00;;;;;;;33.52;28.45;100902.03;5078348;28;20043;-64
2021/05/04 10:16:24;;;;;;;14.88;3.60;;;;;;;33.73;27.38;100900.38;5084391;28;20063;-64
2021/05/04 10:18:57;;;;;;;18.47;3.33;;;;;;;33.90;26.61;100910.88;5084271;28;20594;-64
2021/05/04 10:21:26;;;;;;;14.85;3.22;;;;;;;34.06;26.29;100916.00;5084682;28;20406;-64
2021/05/04 10:23:55;;;;;;;16.77;3.72;;;;;;;34.03;25.98;100913.50;5085359;28;20105;-64
2021/05/04 10:26:28;;;;;;;19.50;3.22;;;;;;;33.72;26.10;100915.06;5084197;28;20048;-65
2021/05/04 10:28:59;;;;;;;21.70;3.47;;;;;;;33.15;26.70;100896.59;5086734;28;20508;-64
2021/05/04 10:31:36;;;;;;;18.92;3.60;;;;;;;32.76;27.22;100905.97;5085864;28;20404;-64
2021/05/04 10:34:32;;;;;;;17.13;2.90;;;;;;;32.60;27.97;100896.25;5090498;28;20039;-65
2021/05/04 10:37:00;;;;;;;16.83;3.80;;;;;;;32.65;27.76;100897.66;5094105;28;20127;-64
2021/05/04 10:39:37;;;;;;;11.10;2.88;;;;;;;32.66;28.39;100887.59;5092520;28;20769;-64
2021/05/04 10:42:06;;;;;;;17.77;3.03;;;;;;;32.82;28.49;100880.88;5100364;28;20138;-65
2021/05/04 10:45:10;;;;;;;15.20;3.80;;;;;;;33.02;27.35;100882.13;5113271;27;20031;-64
2021/05/04 10:47:49;;;;;;;21.15;3.72;;;;;;;33.10;27.49;100878.78;5105825;27;20514;-64
2021/05/04 10:50:20;;;;;;;16.13;2.97;;;;;;;33.29;27.11;100884.63;5108973;27;20081;-64
2021/05/04 10:53:00;;;;;;;22.50;4.10;;;;;;;33.47;26.93;100899.66;5112980;27;20028;-64
2021/05/04 10:56:08;;;;;;;19.25;3.03;;;;;;;33.52;26.71;100881.00;5108011;28;20045;-64
2021/05/04 10:58:55;;;;;;;14.48;2.90;;;;;;;33.51;26.36;100878.38;5100957;28;20043;-64
2021/05/04 11:01:22;;;;;;;16.80;3.50;;;;;;;33.33;26.39;100886.16;5112298;28;20479;-64
2021/05/04 11:03:54;;;;;;;20.27;3.42;;;;;;;33.57;26.17;100883.34;5111956;27;20056;-64
2021/05/04 11:06:44;;;;;;;19.73;3.30;;;;;;;33.79;26.18;100872.50;5113430;27;20055;-65
2021/05/04 11:09:18;;;;;;;22.77;4.93;;;;;;;33.91;26.01;100881.59;5108044;27;20063;-65
2021/05/04 11:11:51;;;;;;;19.02;3.95;;;;;;;33.97;26.13;100887.47;5102341;28;20074;-65
2021/05/04 11:14:40;;;;;;;18.23;4.57;;;;;;;34.15;25.76;100887.84;5114621;27;20399;-65
2021/05/04 11:17:12;;;;;;;15.45;3.00;;;;;;;34.40;25.46;100882.13;5110777;28;20054;-65
2021/05/04 11:19:41;;;;;;;17.77;3.08;;;;;;;34.36;25.52;100885.25;5108315;28;20071;-64
2021/05/04 11:22:24;;;;;;;16.48;3.08;;;;;;;34.70;25.23;100889.69;5111541;28;20089;-65
2021/05/04 11:24:54;;;;;;;20.20;3.40;;;;;;;34.85;25.18;100889.47;5111109;27;20112;-65
2021/05/04 11:27:31;;;;;;;16.50;3.00;;;;;;;34.89;25.02;100879.94;5109021;28;20062;-67